sensor_id;sensor_type;location;lat;lon;timestamp;P1;durP1;ratioP1;P2;durP2;ratioP2
35364;SDS011;21464;48.112;11.530;2023-10-13T00:01:23;6.03;;;2.88;;
35364;SDS011;21464;48.112;11.530;2023-10-13T00:03:50;5.95;;;2.45;;
35364;SDS011;21464;48.112;11.530;2023-10-13T00:06:20;5.30;;;2.58;;
35364;SDS011;21464;48.112;11.530;2023-10-13T00:08:46;4.60;;;2.60;;
35364;SDS011;21464;48.112;11.530;2023-10-13T00:11:13;4.95;;;2.90;;
35364;SDS011;21464;48.112;11.530;2023-10-13T00:13:39;2.97;;;2.55;;
35364;SDS011;21464;48.112;11.530;2023-10-13T00:16:09;6.60;;;2.97;;
35364;SDS011;21464;48.112;11.530;2023-10-13T00:18:43;4.57;;;2.47;;
35364;SDS011;21464;48.112;11.530;2023-10-13T00:21:10;4.75;;;2.60;;
35364;SDS011;21464;48.112;11.530;2023-10-13T00:23:40;4.03;;;2.67;;
35364;SDS011;21464;48.112;11.530;2023-10-13T00:26:21;5.93;;;2.85;;
35364;SDS011;21464;48.112;11.530;2023-10-13T00:28:54;4.85;;;2.80;;
35364;SDS011;21464;48.112;11.530;2023-10-13T00:31:42;3.13;;;2.45;;
35364;SDS011;21464;48.112;11.530;2023-10-13T00:34:09;4.00;;;2.72;;
35364;SDS011;21464;48.112;11.530;2023-10-13T00:36:38;3.67;;;2.70;;
35364;SDS011;21464;48.112;11.530;2023-10-13T00:39:14;3.70;;;2.95;;
35364;SDS011;21464;48.112;11.530;2023-10-13T00:41:43;3.25;;;2.55;;
35364;SDS011;21464;48.112;11.530;2023-10-13T00:44:18;3.10;;;2.42;;
35364;SDS011;21464;48.112;11.530;2023-10-13T00:46:54;6.53;;;3.00;;
35364;SDS011;21464;48.112;11.530;2023-10-13T00:49:22;4.95;;;2.72;;
35364;SDS011;21464;48.112;11.530;2023-10-13T00:51:49;5.28;;;2.72;;
35364;SDS011;21464;48.112;11.530;2023-10-13T00:54:16;6.07;;;2.80;;
35364;SDS011;21464;48.112;11.530;2023-10-13T00:56:45;4.57;;;2.63;;
35364;SDS011;21464;48.112;11.530;2023-10-13T00:59:23;4.55;;;2.80;;
35364;SDS011;21464;48.112;11.530;2023-10-13T01:01:51;4.93;;;3.28;;
35364;SDS011;21464;48.112;11.530;2023-10-13T01:04:21;5.78;;;2.45;;
35364;SDS011;21464;48.112;11.530;2023-10-13T01:06:54;4.50;;;2.80;;
35364;SDS011;21464;48.112;11.530;2023-10-13T01:09:20;6.53;;;2.92;;
35364;SDS011;21464;48.112;11.530;2023-10-13T01:11:50;5.22;;;2.90;;
35364;SDS011;21464;48.112;11.530;2023-10-13T01:14:21;5.00;;;2.55;;
35364;SDS011;21464;48.112;11.530;2023-10-13T01:16:49;5.60;;;2.60;;
35364;SDS011;21464;48.112;11.530;2023-10-13T01:19:19;5.40;;;2.60;;
35364;SDS011;21464;48.112;11.530;2023-10-13T01:21:50;4.50;;;2.88;;
35364;SDS011;21464;48.112;11.530;2023-10-13T01:24:23;5.95;;;2.60;;
35364;SDS011;21464;48.112;11.530;2023-10-13T01:26:50;3.70;;;3.03;;
35364;SDS011;21464;48.112;11.530;2023-10-13T01:29:19;3.63;;;2.80;;
35364;SDS011;21464;48.112;11.530;2023-10-13T01:31:52;5.28;;;2.92;;
35364;SDS011;21464;48.112;11.530;2023-10-13T01:34:18;4.63;;;2.75;;
35364;SDS011;21464;48.112;11.530;2023-10-13T01:36:51;4.70;;;2.72;;
35364;SDS011;21464;48.112;11.530;2023-10-13T01:39:22;3.40;;;2.20;;
35364;SDS011;21464;48.112;11.530;2023-10-13T01:41:54;5.43;;;2.83;;
35364;SDS011;21464;48.112;11.530;2023-10-13T01:44:25;5.13;;;2.42;;
35364;SDS011;21464;48.112;11.530;2023-10-13T01:46:53;5.53;;;2.60;;
35364;SDS011;21464;48.112;11.530;2023-10-13T01:49:20;3.17;;;2.75;;
35364;SDS011;21464;48.112;11.530;2023-10-13T01:51:48;3.67;;;2.85;;
35364;SDS011;21464;48.112;11.530;2023-10-13T01:54:15;3.45;;;2.50;;
35364;SDS011;21464;48.112;11.530;2023-10-13T01:56:41;4.43;;;2.80;;
35364;SDS011;21464;48.112;11.530;2023-10-13T01:59:13;4.28;;;2.67;;
35364;SDS011;21464;48.112;11.530;2023-10-13T02:01:40;3.78;;;3.03;;
35364;SDS011;21464;48.112;11.530;2023-10-13T02:04:07;6.35;;;3.63;;
35364;SDS011;21464;48.112;11.530;2023-10-13T02:06:37;4.32;;;3.10;;
35364;SDS011;21464;48.112;11.530;2023-10-13T02:09:04;5.85;;;3.63;;
35364;SDS011;21464;48.112;11.530;2023-10-13T02:11:51;5.85;;;3.55;;
35364;SDS011;21464;48.112;11.530;2023-10-13T02:14:22;4.45;;;3.20;;
35364;SDS011;21464;48.112;11.530;2023-10-13T02:16:51;6.65;;;3.78;;
35364;SDS011;21464;48.112;11.530;2023-10-13T02:19:37;6.07;;;3.53;;
35364;SDS011;21464;48.112;11.530;2023-10-13T02:22:12;4.88;;;3.70;;
35364;SDS011;21464;48.112;11.530;2023-10-13T02:24:51;3.28;;;2.90;;
35364;SDS011;21464;48.112;11.530;2023-10-13T02:27:18;5.03;;;3.25;;
35364;SDS011;21464;48.112;11.530;2023-10-13T02:29:49;3.90;;;3.00;;
35364;SDS011;21464;48.112;11.530;2023-10-13T02:32:15;6.13;;;3.25;;
35364;SDS011;21464;48.112;11.530;2023-10-13T02:34:45;5.38;;;3.35;;
35364;SDS011;21464;48.112;11.530;2023-10-13T02:37:11;4.25;;;3.30;;
35364;SDS011;21464;48.112;11.530;2023-10-13T02:39:40;4.95;;;2.95;;
35364;SDS011;21464;48.112;11.530;2023-10-13T02:42:07;4.25;;;2.92;;
35364;SDS011;21464;48.112;11.530;2023-10-13T02:44:34;6.80;;;3.30;;
35364;SDS011;21464;48.112;11.530;2023-10-13T02:47:02;5.50;;;2.95;;
35364;SDS011;21464;48.112;11.530;2023-10-13T02:49:40;5.30;;;2.97;;
35364;SDS011;21464;48.112;11.530;2023-10-13T02:52:09;3.33;;;2.88;;
35364;SDS011;21464;48.112;11.530;2023-10-13T02:54:35;7.55;;;3.30;;
35364;SDS011;21464;48.112;11.530;2023-10-13T02:57:16;5.93;;;3.03;;
35364;SDS011;21464;48.112;11.530;2023-10-13T02:59:43;4.80;;;2.63;;
35364;SDS011;21464;48.112;11.530;2023-10-13T03:02:14;7.40;;;3.00;;
35364;SDS011;21464;48.112;11.530;2023-10-13T03:04:44;4.10;;;3.00;;
35364;SDS011;21464;48.112;11.530;2023-10-13T03:07:12;9.27;;;3.53;;
35364;SDS011;21464;48.112;11.530;2023-10-13T03:09:41;5.47;;;3.15;;
35364;SDS011;21464;48.112;11.530;2023-10-13T03:12:17;5.10;;;3.13;;
35364;SDS011;21464;48.112;11.530;2023-10-13T03:14:44;4.03;;;3.10;;
35364;SDS011;21464;48.112;11.530;2023-10-13T03:17:21;3.90;;;2.90;;
35364;SDS011;21464;48.112;11.530;2023-10-13T03:19:59;6.30;;;3.03;;
35364;SDS011;21464;48.112;11.530;2023-10-13T03:22:25;3.08;;;2.78;;
35364;SDS011;21464;48.112;11.530;2023-10-13T03:24:59;7.32;;;3.00;;
35364;SDS011;21464;48.112;11.530;2023-10-13T03:27:30;4.72;;;2.60;;
35364;SDS011;21464;48.112;11.530;2023-10-13T03:30:20;5.68;;;2.92;;
35364;SDS011;21464;48.112;11.530;2023-10-13T03:32:56;4.07;;;3.03;;
35364;SDS011;21464;48.112;11.530;2023-10-13T03:35:23;5.60;;;3.08;;
35364;SDS011;21464;48.112;11.530;2023-10-13T03:37:54;4.65;;;2.85;;
35364;SDS011;21464;48.112;11.530;2023-10-13T03:40:21;5.65;;;3.08;;
35364;SDS011;21464;48.112;11.530;2023-10-13T03:43:06;5.80;;;3.05;;
35364;SDS011;21464;48.112;11.530;2023-10-13T03:45:37;3.00;;;2.70;;
35364;SDS011;21464;48.112;11.530;2023-10-13T03:48:09;5.93;;;2.80;;
35364;SDS011;21464;48.112;11.530;2023-10-13T03:50:37;6.15;;;2.70;;
35364;SDS011;21464;48.112;11.530;2023-10-13T03:53:23;5.65;;;3.05;;
35364;SDS011;21464;48.112;11.530;2023-10-13T03:55:51;5.30;;;2.50;;
35364;SDS011;21464;48.112;11.530;2023-10-13T03:58:37;3.20;;;2.67;;
35364;SDS011;21464;48.112;11.530;2023-10-13T04:01:13;4.50;;;2.80;;
35364;SDS011;21464;48.112;11.530;2023-10-13T04:03:42;5.65;;;3.15;;
35364;SDS011;21464;48.112;11.530;2023-10-13T04:06:32;4.63;;;2.60;;
35364;SDS011;21464;48.112;11.530;2023-10-13T04:09:16;6.95;;;2.85;;
35364;SDS011;21464;48.112;11.530;2023-10-13T04:11:58;5.45;;;2.70;;
35364;SDS011;21464;48.112;11.530;2023-10-13T04:14:45;4.88;;;2.70;;
35364;SDS011;21464;48.112;11.530;2023-10-13T04:17:24;4.22;;;2.53;;
35364;SDS011;21464;48.112;11.530;2023-10-13T04:19:54;3.20;;;2.67;;
35364;SDS011;21464;48.112;11.530;2023-10-13T04:22:37;6.60;;;3.05;;
35364;SDS011;21464;48.112;11.530;2023-10-13T04:25:21;7.40;;;2.80;;
35364;SDS011;21464;48.112;11.530;2023-10-13T04:28:09;5.30;;;2.90;;
35364;SDS011;21464;48.112;11.530;2023-10-13T04:30:49;5.05;;;2.78;;
35364;SDS011;21464;48.112;11.530;2023-10-13T04:33:29;5.10;;;2.60;;
35364;SDS011;21464;48.112;11.530;2023-10-13T04:38:51;5.95;;;2.83;;
35364;SDS011;21464;48.112;11.530;2023-10-13T04:41:31;4.07;;;2.70;;
35364;SDS011;21464;48.112;11.530;2023-10-13T04:44:09;5.57;;;3.42;;
35364;SDS011;21464;48.112;11.530;2023-10-13T04:46:55;4.85;;;3.03;;
35364;SDS011;21464;48.112;11.530;2023-10-13T04:49:25;4.95;;;2.90;;
35364;SDS011;21464;48.112;11.530;2023-10-13T04:52:02;6.00;;;2.97;;
35364;SDS011;21464;48.112;11.530;2023-10-13T04:54:36;3.85;;;3.45;;
35364;SDS011;21464;48.112;11.530;2023-10-13T04:57:20;4.45;;;3.20;;
35364;SDS011;21464;48.112;11.530;2023-10-13T05:00:02;7.38;;;4.45;;
35364;SDS011;21464;48.112;11.530;2023-10-13T05:02:30;8.80;;;5.90;;
35364;SDS011;21464;48.112;11.530;2023-10-13T05:05:17;7.90;;;4.32;;
35364;SDS011;21464;48.112;11.530;2023-10-13T05:07:44;6.10;;;3.88;;
35364;SDS011;21464;48.112;11.530;2023-10-13T05:10:45;8.65;;;3.65;;
35364;SDS011;21464;48.112;11.530;2023-10-13T05:13:30;6.90;;;4.20;;
35364;SDS011;21464;48.112;11.530;2023-10-13T05:16:15;7.60;;;3.50;;
35364;SDS011;21464;48.112;11.530;2023-10-13T05:18:59;7.18;;;4.13;;
35364;SDS011;21464;48.112;11.530;2023-10-13T05:21:44;7.68;;;3.95;;
35364;SDS011;21464;48.112;11.530;2023-10-13T05:24:29;4.93;;;3.42;;
35364;SDS011;21464;48.112;11.530;2023-10-13T05:27:14;8.82;;;3.75;;
35364;SDS011;21464;48.112;11.530;2023-10-13T05:29:59;6.78;;;4.93;;
35364;SDS011;21464;48.112;11.530;2023-10-13T05:32:44;8.43;;;5.38;;
35364;SDS011;21464;48.112;11.530;2023-10-13T05:35:30;5.97;;;4.70;;
35364;SDS011;21464;48.112;11.530;2023-10-13T05:38:15;7.97;;;5.05;;
35364;SDS011;21464;48.112;11.530;2023-10-13T05:41:03;6.30;;;4.15;;
35364;SDS011;21464;48.112;11.530;2023-10-13T05:43:48;12.00;;;5.85;;
35364;SDS011;21464;48.112;11.530;2023-10-13T05:46:33;9.07;;;5.07;;
35364;SDS011;21464;48.112;11.530;2023-10-13T05:49:03;7.55;;;4.93;;
35364;SDS011;21464;48.112;11.530;2023-10-13T05:51:33;7.78;;;4.32;;
35364;SDS011;21464;48.112;11.530;2023-10-13T05:54:02;5.85;;;3.78;;
35364;SDS011;21464;48.112;11.530;2023-10-13T05:59:28;7.35;;;3.78;;
35364;SDS011;21464;48.112;11.530;2023-10-13T06:02:14;7.53;;;3.88;;
35364;SDS011;21464;48.112;11.530;2023-10-13T06:05:07;7.28;;;3.92;;
35364;SDS011;21464;48.112;11.530;2023-10-13T06:07:52;8.85;;;4.40;;
35364;SDS011;21464;48.112;11.530;2023-10-13T06:10:38;8.93;;;3.97;;
35364;SDS011;21464;48.112;11.530;2023-10-13T06:13:22;6.88;;;4.28;;
35364;SDS011;21464;48.112;11.530;2023-10-13T06:16:11;6.50;;;3.50;;
35364;SDS011;21464;48.112;11.530;2023-10-13T06:18:57;8.52;;;3.60;;
35364;SDS011;21464;48.112;11.530;2023-10-13T06:21:43;8.52;;;3.45;;
35364;SDS011;21464;48.112;11.530;2023-10-13T06:24:28;6.28;;;3.65;;
35364;SDS011;21464;48.112;11.530;2023-10-13T06:27:13;4.00;;;2.83;;
35364;SDS011;21464;48.112;11.530;2023-10-13T06:29:58;5.30;;;3.30;;
35364;SDS011;21464;48.112;11.530;2023-10-13T06:32:26;8.25;;;3.75;;
35364;SDS011;21464;48.112;11.530;2023-10-13T06:34:53;10.27;;;5.30;;
35364;SDS011;21464;48.112;11.530;2023-10-13T06:37:33;9.43;;;4.20;;
35364;SDS011;21464;48.112;11.530;2023-10-13T06:40:00;8.93;;;4.43;;
35364;SDS011;21464;48.112;11.530;2023-10-13T06:42:45;9.13;;;3.90;;
35364;SDS011;21464;48.112;11.530;2023-10-13T06:45:11;4.72;;;3.63;;
35364;SDS011;21464;48.112;11.530;2023-10-13T06:47:38;7.53;;;3.78;;
35364;SDS011;21464;48.112;11.530;2023-10-13T06:50:11;6.53;;;3.33;;
35364;SDS011;21464;48.112;11.530;2023-10-13T06:52:45;7.10;;;3.67;;
35364;SDS011;21464;48.112;11.530;2023-10-13T06:55:15;5.32;;;3.42;;
35364;SDS011;21464;48.112;11.530;2023-10-13T06:57:49;5.18;;;4.07;;
35364;SDS011;21464;48.112;11.530;2023-10-13T07:00:17;3.90;;;3.25;;
35364;SDS011;21464;48.112;11.530;2023-10-13T07:02:54;4.97;;;2.60;;
35364;SDS011;21464;48.112;11.530;2023-10-13T07:05:37;4.93;;;3.55;;
35364;SDS011;21464;48.112;11.530;2023-10-13T07:08:05;5.13;;;3.58;;
35364;SDS011;21464;48.112;11.530;2023-10-13T07:10:32;4.22;;;3.22;;
35364;SDS011;21464;48.112;11.530;2023-10-13T07:13:13;4.93;;;3.05;;
35364;SDS011;21464;48.112;11.530;2023-10-13T07:15:40;7.07;;;3.03;;
35364;SDS011;21464;48.112;11.530;2023-10-13T07:18:13;5.93;;;3.22;;
35364;SDS011;21464;48.112;11.530;2023-10-13T07:20:45;4.68;;;3.13;;
35364;SDS011;21464;48.112;11.530;2023-10-13T07:23:12;9.95;;;4.10;;
35364;SDS011;21464;48.112;11.530;2023-10-13T07:25:50;5.15;;;3.50;;
35364;SDS011;21464;48.112;11.530;2023-10-13T07:28:19;8.88;;;4.13;;
35364;SDS011;21464;48.112;11.530;2023-10-13T07:30:45;7.78;;;4.05;;
35364;SDS011;21464;48.112;11.530;2023-10-13T07:33:20;5.53;;;3.65;;
35364;SDS011;21464;48.112;11.530;2023-10-13T07:36:08;5.63;;;3.80;;
35364;SDS011;21464;48.112;11.530;2023-10-13T07:38:42;8.48;;;3.92;;
35364;SDS011;21464;48.112;11.530;2023-10-13T07:41:09;8.63;;;3.35;;
35364;SDS011;21464;48.112;11.530;2023-10-13T07:43:35;5.18;;;3.65;;
35364;SDS011;21464;48.112;11.530;2023-10-13T07:46:05;8.30;;;4.07;;
35364;SDS011;21464;48.112;11.530;2023-10-13T07:48:41;9.10;;;3.38;;
35364;SDS011;21464;48.112;11.530;2023-10-13T07:51:11;6.50;;;3.35;;
35364;SDS011;21464;48.112;11.530;2023-10-13T07:53:43;5.03;;;3.67;;
35364;SDS011;21464;48.112;11.530;2023-10-13T07:56:10;7.30;;;3.50;;
35364;SDS011;21464;48.112;11.530;2023-10-13T07:58:39;5.65;;;3.22;;
35364;SDS011;21464;48.112;11.530;2023-10-13T08:01:41;6.75;;;3.67;;
35364;SDS011;21464;48.112;11.530;2023-10-13T08:04:09;8.05;;;3.90;;
35364;SDS011;21464;48.112;11.530;2023-10-13T08:06:38;7.40;;;3.75;;
35364;SDS011;21464;48.112;11.530;2023-10-13T08:09:09;6.28;;;3.83;;
35364;SDS011;21464;48.112;11.530;2023-10-13T08:11:54;6.07;;;3.80;;
35364;SDS011;21464;48.112;11.530;2023-10-13T08:14:21;6.25;;;3.30;;
35364;SDS011;21464;48.112;11.530;2023-10-13T08:16:54;7.38;;;3.47;;
35364;SDS011;21464;48.112;11.530;2023-10-13T08:19:28;8.52;;;4.28;;
35364;SDS011;21464;48.112;11.530;2023-10-13T08:22:12;3.70;;;3.38;;
35364;SDS011;21464;48.112;11.530;2023-10-13T08:24:45;6.57;;;3.65;;
35364;SDS011;21464;48.112;11.530;2023-10-13T08:27:12;6.47;;;3.70;;
35364;SDS011;21464;48.112;11.530;2023-10-13T08:29:58;6.72;;;3.17;;
35364;SDS011;21464;48.112;11.530;2023-10-13T08:32:24;7.97;;;3.38;;
35364;SDS011;21464;48.112;11.530;2023-10-13T08:34:55;8.63;;;3.58;;
35364;SDS011;21464;48.112;11.530;2023-10-13T08:37:21;7.82;;;3.45;;
35364;SDS011;21464;48.112;11.530;2023-10-13T08:39:48;5.60;;;3.40;;
35364;SDS011;21464;48.112;11.530;2023-10-13T08:42:28;7.75;;;3.50;;
35364;SDS011;21464;48.112;11.530;2023-10-13T08:47:55;5.90;;;3.00;;
35364;SDS011;21464;48.112;11.530;2023-10-13T08:50:43;7.32;;;2.63;;
35364;SDS011;21464;48.112;11.530;2023-10-13T08:53:26;6.00;;;3.50;;
35364;SDS011;21464;48.112;11.530;2023-10-13T08:56:13;6.32;;;4.25;;
35364;SDS011;21464;48.112;11.530;2023-10-13T08:58:46;7.50;;;3.83;;
35364;SDS011;21464;48.112;11.530;2023-10-13T09:01:26;4.63;;;3.90;;
35364;SDS011;21464;48.112;11.530;2023-10-13T09:04:06;5.88;;;3.10;;
35364;SDS011;21464;48.112;11.530;2023-10-13T09:06:46;4.68;;;2.80;;
35364;SDS011;21464;48.112;11.530;2023-10-13T09:09:26;4.13;;;2.88;;
35364;SDS011;21464;48.112;11.530;2023-10-13T09:11:53;6.68;;;2.92;;
35364;SDS011;21464;48.112;11.530;2023-10-13T09:14:34;5.68;;;3.08;;
35364;SDS011;21464;48.112;11.530;2023-10-13T09:17:13;6.78;;;2.80;;
35364;SDS011;21464;48.112;11.530;2023-10-13T09:19:46;5.25;;;2.95;;
35364;SDS011;21464;48.112;11.530;2023-10-13T09:22:21;5.13;;;2.92;;
35364;SDS011;21464;48.112;11.530;2023-10-13T09:25:01;6.05;;;3.20;;
35364;SDS011;21464;48.112;11.530;2023-10-13T09:27:32;10.30;;;3.47;;
35364;SDS011;21464;48.112;11.530;2023-10-13T09:29:59;8.30;;;3.72;;
35364;SDS011;21464;48.112;11.530;2023-10-13T09:33:09;6.80;;;3.70;;
35364;SDS011;21464;48.112;11.530;2023-10-13T09:35:34;8.45;;;3.65;;
35364;SDS011;21464;48.112;11.530;2023-10-13T09:38:03;5.47;;;3.00;;
35364;SDS011;21464;48.112;11.530;2023-10-13T09:40:30;5.18;;;3.33;;
35364;SDS011;21464;48.112;11.530;2023-10-13T09:42:59;5.25;;;2.78;;
35364;SDS011;21464;48.112;11.530;2023-10-13T09:45:31;6.13;;;3.70;;
35364;SDS011;21464;48.112;11.530;2023-10-13T09:48:28;7.85;;;3.97;;
35364;SDS011;21464;48.112;11.530;2023-10-13T09:50:59;5.68;;;3.20;;
35364;SDS011;21464;48.112;11.530;2023-10-13T09:53:26;6.40;;;3.42;;
35364;SDS011;21464;48.112;11.530;2023-10-13T09:55:55;5.20;;;2.95;;
35364;SDS011;21464;48.112;11.530;2023-10-13T09:58:38;6.07;;;2.60;;
35364;SDS011;21464;48.112;11.530;2023-10-13T10:01:17;6.70;;;2.88;;
35364;SDS011;21464;48.112;11.530;2023-10-13T10:04:06;3.53;;;2.40;;
35364;SDS011;21464;48.112;11.530;2023-10-13T10:06:37;5.57;;;2.75;;
35364;SDS011;21464;48.112;11.530;2023-10-13T10:09:11;3.00;;;2.60;;
35364;SDS011;21464;48.112;11.530;2023-10-13T10:17:22;4.80;;;2.72;;
35364;SDS011;21464;48.112;11.530;2023-10-13T10:19:49;3.28;;;2.83;;
35364;SDS011;21464;48.112;11.530;2023-10-13T10:22:26;8.02;;;3.25;;
35364;SDS011;21464;48.112;11.530;2023-10-13T10:25:02;4.30;;;2.55;;
35364;SDS011;21464;48.112;11.530;2023-10-13T10:27:32;5.30;;;2.40;;
35364;SDS011;21464;48.112;11.530;2023-10-13T10:30:00;4.45;;;2.67;;
35364;SDS011;21464;48.112;11.530;2023-10-13T10:32:39;7.25;;;2.53;;
35364;SDS011;21464;48.112;11.530;2023-10-13T10:35:14;6.47;;;2.67;;
35364;SDS011;21464;48.112;11.530;2023-10-13T10:37:41;8.10;;;3.40;;
35364;SDS011;21464;48.112;11.530;2023-10-13T10:40:13;6.25;;;2.72;;
35364;SDS011;21464;48.112;11.530;2023-10-13T10:42:57;5.85;;;3.55;;
35364;SDS011;21464;48.112;11.530;2023-10-13T10:45:27;5.80;;;3.50;;
35364;SDS011;21464;48.112;11.530;2023-10-13T10:47:58;6.25;;;3.05;;
35364;SDS011;21464;48.112;11.530;2023-10-13T10:50:25;4.38;;;2.50;;
35364;SDS011;21464;48.112;11.530;2023-10-13T10:53:03;6.50;;;2.75;;
35364;SDS011;21464;48.112;11.530;2023-10-13T10:55:37;6.80;;;2.35;;
35364;SDS011;21464;48.112;11.530;2023-10-13T10:58:04;5.72;;;2.22;;
35364;SDS011;21464;48.112;11.530;2023-10-13T11:00:32;8.10;;;2.45;;
35364;SDS011;21464;48.112;11.530;2023-10-13T11:03:12;4.45;;;2.92;;
35364;SDS011;21464;48.112;11.530;2023-10-13T11:05:42;4.78;;;2.38;;
35364;SDS011;21464;48.112;11.530;2023-10-13T11:08:20;5.05;;;2.38;;
35364;SDS011;21464;48.112;11.530;2023-10-13T11:10:51;4.38;;;2.60;;
35364;SDS011;21464;48.112;11.530;2023-10-13T11:13:17;5.50;;;2.33;;
35364;SDS011;21464;48.112;11.530;2023-10-13T11:15:49;7.20;;;2.22;;
35364;SDS011;21464;48.112;11.530;2023-10-13T11:18:16;9.25;;;3.50;;
35364;SDS011;21464;48.112;11.530;2023-10-13T11:20:47;6.43;;;2.50;;
35364;SDS011;21464;48.112;11.530;2023-10-13T11:23:19;5.38;;;2.55;;
35364;SDS011;21464;48.112;11.530;2023-10-13T11:25:57;5.57;;;2.60;;
35364;SDS011;21464;48.112;11.530;2023-10-13T11:28:25;7.78;;;2.90;;
35364;SDS011;21464;48.112;11.530;2023-10-13T11:30:57;6.50;;;2.92;;
35364;SDS011;21464;48.112;11.530;2023-10-13T11:33:24;5.35;;;2.30;;
35364;SDS011;21464;48.112;11.530;2023-10-13T11:35:55;4.15;;;2.40;;
35364;SDS011;21464;48.112;11.530;2023-10-13T11:38:31;8.05;;;2.13;;
35364;SDS011;21464;48.112;11.530;2023-10-13T11:41:14;6.25;;;2.38;;
35364;SDS011;21464;48.112;11.530;2023-10-13T11:43:44;8.55;;;2.72;;
35364;SDS011;21464;48.112;11.530;2023-10-13T11:46:19;5.80;;;2.58;;
35364;SDS011;21464;48.112;11.530;2023-10-13T11:49:01;6.72;;;2.60;;
35364;SDS011;21464;48.112;11.530;2023-10-13T11:51:40;5.22;;;2.70;;
35364;SDS011;21464;48.112;11.530;2023-10-13T11:54:15;5.95;;;4.22;;
35364;SDS011;21464;48.112;11.530;2023-10-13T11:56:47;6.63;;;3.33;;
35364;SDS011;21464;48.112;11.530;2023-10-13T11:59:14;4.68;;;2.53;;
35364;SDS011;21464;48.112;11.530;2023-10-13T12:04:28;4.88;;;2.83;;
35364;SDS011;21464;48.112;11.530;2023-10-13T12:07:17;8.13;;;2.92;;
35364;SDS011;21464;48.112;11.530;2023-10-13T12:09:44;6.80;;;3.63;;
35364;SDS011;21464;48.112;11.530;2023-10-13T12:12:31;5.68;;;2.60;;
35364;SDS011;21464;48.112;11.530;2023-10-13T12:15:06;4.25;;;2.38;;
35364;SDS011;21464;48.112;11.530;2023-10-13T12:17:35;5.53;;;1.95;;
35364;SDS011;21464;48.112;11.530;2023-10-13T12:20:02;6.00;;;2.55;;
35364;SDS011;21464;48.112;11.530;2023-10-13T12:22:31;5.50;;;2.50;;
35364;SDS011;21464;48.112;11.530;2023-10-13T12:25:17;6.88;;;2.40;;
35364;SDS011;21464;48.112;11.530;2023-10-13T12:27:58;4.95;;;2.15;;
35364;SDS011;21464;48.112;11.530;2023-10-13T12:30:38;4.15;;;2.28;;
35364;SDS011;21464;48.112;11.530;2023-10-13T12:33:34;3.80;;;2.13;;
35364;SDS011;21464;48.112;11.530;2023-10-13T12:36:03;4.88;;;2.08;;
35364;SDS011;21464;48.112;11.530;2023-10-13T12:38:38;6.40;;;2.10;;
35364;SDS011;21464;48.112;11.530;2023-10-13T12:41:14;5.95;;;2.17;;
35364;SDS011;21464;48.112;11.530;2023-10-13T12:44:02;4.45;;;2.20;;
35364;SDS011;21464;48.112;11.530;2023-10-13T12:46:47;9.93;;;4.30;;
35364;SDS011;21464;48.112;11.530;2023-10-13T12:49:33;6.47;;;2.83;;
35364;SDS011;21464;48.112;11.530;2023-10-13T12:52:09;8.68;;;2.95;;
35364;SDS011;21464;48.112;11.530;2023-10-13T12:55:01;5.45;;;2.92;;
35364;SDS011;21464;48.112;11.530;2023-10-13T12:57:35;5.30;;;2.40;;
35364;SDS011;21464;48.112;11.530;2023-10-13T13:00:09;5.80;;;2.28;;
35364;SDS011;21464;48.112;11.530;2023-10-13T13:02:47;4.28;;;2.50;;
35364;SDS011;21464;48.112;11.530;2023-10-13T13:05:16;4.70;;;2.90;;
35364;SDS011;21464;48.112;11.530;2023-10-13T13:07:46;6.20;;;2.45;;
35364;SDS011;21464;48.112;11.530;2023-10-13T13:10:13;6.32;;;2.38;;
35364;SDS011;21464;48.112;11.530;2023-10-13T13:12:43;4.65;;;2.83;;
35364;SDS011;21464;48.112;11.530;2023-10-13T13:15:09;4.18;;;2.55;;
35364;SDS011;21464;48.112;11.530;2023-10-13T13:17:40;4.57;;;2.90;;
35364;SDS011;21464;48.112;11.530;2023-10-13T13:20:06;7.25;;;2.63;;
35364;SDS011;21464;48.112;11.530;2023-10-13T13:22:37;5.13;;;3.20;;
35364;SDS011;21464;48.112;11.530;2023-10-13T13:25:04;5.13;;;3.00;;
35364;SDS011;21464;48.112;11.530;2023-10-13T13:27:35;5.22;;;3.03;;
35364;SDS011;21464;48.112;11.530;2023-10-13T13:30:03;7.53;;;3.45;;
35364;SDS011;21464;48.112;11.530;2023-10-13T13:32:38;4.43;;;3.03;;
35364;SDS011;21464;48.112;11.530;2023-10-13T13:35:07;4.97;;;2.53;;
35364;SDS011;21464;48.112;11.530;2023-10-13T13:37:34;4.88;;;2.30;;
35364;SDS011;21464;48.112;11.530;2023-10-13T13:40:03;4.80;;;2.38;;
35364;SDS011;21464;48.112;11.530;2023-10-13T13:42:44;4.68;;;2.42;;
35364;SDS011;21464;48.112;11.530;2023-10-13T13:45:17;4.85;;;2.60;;
35364;SDS011;21464;48.112;11.530;2023-10-13T13:47:53;4.65;;;2.78;;
35364;SDS011;21464;48.112;11.530;2023-10-13T13:50:24;3.15;;;2.38;;
35364;SDS011;21464;48.112;11.530;2023-10-13T13:52:55;4.57;;;2.42;;
35364;SDS011;21464;48.112;11.530;2023-10-13T13:55:23;5.95;;;2.08;;
35364;SDS011;21464;48.112;11.530;2023-10-13T13:57:50;8.57;;;2.38;;
35364;SDS011;21464;48.112;11.530;2023-10-13T14:00:17;4.78;;;2.88;;
35364;SDS011;21464;48.112;11.530;2023-10-13T14:02:49;5.32;;;2.30;;
35364;SDS011;21464;48.112;11.530;2023-10-13T14:05:15;6.43;;;2.58;;
35364;SDS011;21464;48.112;11.530;2023-10-13T14:07:42;4.72;;;2.67;;
35364;SDS011;21464;48.112;11.530;2023-10-13T14:10:18;5.38;;;2.30;;
35364;SDS011;21464;48.112;11.530;2023-10-13T14:12:58;7.70;;;2.80;;
35364;SDS011;21464;48.112;11.530;2023-10-13T14:15:33;5.30;;;2.50;;
35364;SDS011;21464;48.112;11.530;2023-10-13T14:18:06;4.43;;;2.33;;
35364;SDS011;21464;48.112;11.530;2023-10-13T14:20:33;5.07;;;2.50;;
35364;SDS011;21464;48.112;11.530;2023-10-13T14:23:06;5.35;;;2.78;;
35364;SDS011;21464;48.112;11.530;2023-10-13T14:25:34;5.95;;;2.78;;
35364;SDS011;21464;48.112;11.530;2023-10-13T14:28:05;5.28;;;2.30;;
35364;SDS011;21464;48.112;11.530;2023-10-13T14:30:31;7.10;;;2.65;;
35364;SDS011;21464;48.112;11.530;2023-10-13T14:32:58;7.68;;;3.00;;
35364;SDS011;21464;48.112;11.530;2023-10-13T14:35:25;6.68;;;2.90;;
35364;SDS011;21464;48.112;11.530;2023-10-13T14:37:54;7.15;;;2.33;;
35364;SDS011;21464;48.112;11.530;2023-10-13T14:40:21;9.25;;;2.90;;
35364;SDS011;21464;48.112;11.530;2023-10-13T14:42:50;4.80;;;2.60;;
35364;SDS011;21464;48.112;11.530;2023-10-13T14:45:16;5.15;;;2.40;;
35364;SDS011;21464;48.112;11.530;2023-10-13T14:47:43;4.50;;;2.13;;
35364;SDS011;21464;48.112;11.530;2023-10-13T14:50:10;5.93;;;2.30;;
35364;SDS011;21464;48.112;11.530;2023-10-13T14:52:46;7.38;;;2.70;;
35364;SDS011;21464;48.112;11.530;2023-10-13T14:55:12;7.65;;;2.40;;
35364;SDS011;21464;48.112;11.530;2023-10-13T14:57:45;6.00;;;2.33;;
35364;SDS011;21464;48.112;11.530;2023-10-13T15:00:16;5.72;;;2.40;;
35364;SDS011;21464;48.112;11.530;2023-10-13T15:02:51;4.97;;;2.30;;
35364;SDS011;21464;48.112;11.530;2023-10-13T15:05:18;7.88;;;2.30;;
35364;SDS011;21464;48.112;11.530;2023-10-13T15:07:45;5.45;;;2.63;;
35364;SDS011;21464;48.112;11.530;2023-10-13T15:10:12;6.20;;;2.58;;
35364;SDS011;21464;48.112;11.530;2023-10-13T15:12:41;5.45;;;2.72;;
35364;SDS011;21464;48.112;11.530;2023-10-13T15:15:08;7.75;;;2.60;;
35364;SDS011;21464;48.112;11.530;2023-10-13T15:17:42;4.18;;;2.47;;
35364;SDS011;21464;48.112;11.530;2023-10-13T15:20:09;5.40;;;2.42;;
35364;SDS011;21464;48.112;11.530;2023-10-13T15:22:42;5.35;;;2.60;;
35364;SDS011;21464;48.112;11.530;2023-10-13T15:25:09;5.03;;;2.20;;
35364;SDS011;21464;48.112;11.530;2023-10-13T15:27:49;8.18;;;2.83;;
35364;SDS011;21464;48.112;11.530;2023-10-13T15:30:22;5.75;;;2.90;;